Time;durP1;ratioP1;P1;durP2;ratioP2;P2;SDS_P1;SDS_P2;PMS_P1;PMS_P2;Temp;Humidity;BMP_temperature;BMP_pressure;BME280_temperature;BME280_humidity;BME280_pressure;Samples;Min_cycle;Max_cycle;Signal;HPM_P1;HPM_P2
2023/01/05 00:02:14;;;;;;;0.37;0.37;;;;;;;;;;7392046;19;20158;-65
2023/01/05 00:04:40;;;;;;;0.20;0.20;;;;;;;;;;7389444;19;20561;-64
2023/01/05 00:07:05;;;;;;;0.30;0.30;;;;;;;;;;7388923;19;20176;-65
2023/01/05 00:09:30;;;;;;;0.33;0.33;;;;;;;;;;7390648;19;20125;-64
2023/01/05 00:22:59;;;;;;;0.20;0.20;;;;;;;;;;7383131;19;20156;-64
2023/01/05 00:25:29;;;;;;;0.33;0.33;;;;;;;;;;7385487;19;20137;-65
2023/01/05 00:27:57;;;;;;;0.30;0.30;;;;;;;;;;7389700;19;20113;-64
2023/01/05 00:30:25;;;;;;;0.30;0.30;;;;;;;;;;7388496;19;20129;-64
2023/01/05 00:32:50;;;;;;;0.20;0.20;;;;;;;;;;7385026;19;20192;-64
2023/01/05 00:35:16;;;;;;;0.30;0.30;;;;;;;;;;7387519;19;20154;-64
2023/01/05 00:37:42;;;;;;;0.30;0.30;;;;;;;;;;7391214;19;20125;-65
2023/01/05 00:40:11;;;;;;;0.20;0.20;;;;;;;;;;7382343;19;20631;-65
2023/01/05 00:42:36;;;;;;;0.23;0.23;;;;;;;;;;7384346;19;20133;-64
2023/01/05 00:45:03;;;;;;;0.30;0.30;;;;;;;;;;7384497;19;20634;-64
2023/01/05 00:47:29;;;;;;;0.30;0.30;;;;;;;;;;7380894;19;20137;-64
2023/01/05 00:49:54;;;;;;;0.40;0.40;;;;;;;;;;7364956;19;20681;-65
2023/01/05 00:52:19;;;;;;;0.30;0.30;;;;;;;;;;7373854;19;20153;-65
2023/01/05 00:54:45;;;;;;;0.40;0.40;;;;;;;;;;7368563;19;20144;-64
2023/01/05 00:57:11;;;;;;;0.30;0.30;;;;;;;;;;7370035;19;20503;-64
2023/01/05 00:59:36;;;;;;;0.63;0.63;;;;;;;;;;7381071;19;20145;-64
2023/01/05 01:02:02;;;;;;;0.43;0.43;;;;;;;;;;7378764;19;20125;-64
2023/01/05 01:04:29;;;;;;;0.30;0.30;;;;;;;;;;7377924;19;20497;-65
2023/01/05 01:06:55;;;;;;;0.90;0.50;;;;;;;;;;7370588;19;20127;-64
2023/01/05 01:09:20;;;;;;;0.30;0.30;;;;;;;;;;7380957;19;20129;-65
2023/01/05 01:11:45;;;;;;;0.30;0.30;;;;;;;;;;7370234;19;20136;-64
2023/01/05 01:14:12;;;;;;;0.40;0.40;;;;;;;;;;7378583;19;20140;-64
2023/01/05 01:16:39;;;;;;;0.20;0.20;;;;;;;;;;7386131;19;20143;-64
2023/01/05 01:19:04;;;;;;;0.40;0.40;;;;;;;;;;7387093;19;20135;-65
2023/01/05 01:21:30;;;;;;;0.30;0.30;;;;;;;;;;7389545;19;20113;-65
2023/01/05 01:23:55;;;;;;;0.30;0.30;;;;;;;;;;7388470;19;20220;-64
2023/01/05 01:26:20;;;;;;;0.33;0.33;;;;;;;;;;7388023;19;20123;-64
2023/01/05 01:28:46;;;;;;;0.20;0.20;;;;;;;;;;7389679;19;20131;-65
2023/01/05 01:31:11;;;;;;;0.30;0.30;;;;;;;;;;7387039;19;20136;-64
2023/01/05 01:33:37;;;;;;;0.30;0.30;;;;;;;;;;7384768;19;20642;-64
2023/01/05 01:36:04;;;;;;;0.30;0.30;;;;;;;;;;7382283;19;20212;-65
2023/01/05 01:38:29;;;;;;;0.30;0.30;;;;;;;;;;7388157;19;20141;-65
2023/01/05 01:40:54;;;;;;;0.30;0.30;;;;;;;;;;7387907;19;20132;-64
2023/01/05 01:43:45;;;;;;;0.20;0.20;;;;;;;;;;7387013;19;20413;-64
2023/01/05 01:46:12;;;;;;;0.30;0.30;;;;;;;;;;7386301;19;20125;-65
2023/01/05 01:48:41;;;;;;;0.30;0.30;;;;;;;;;;7383075;19;20618;-64
2023/01/05 01:51:14;;;;;;;0.60;0.60;;;;;;;;;;7368080;19;21475;-64
2023/01/05 01:53:42;;;;;;;0.27;0.27;;;;;;;;;;7371585;19;20186;-64
2023/01/05 01:56:10;;;;;;;0.30;0.30;;;;;;;;;;7374339;19;20149;-64
2023/01/05 01:58:36;;;;;;;0.60;0.60;;;;;;;;;;7379524;19;20125;-64
2023/01/05 02:01:02;;;;;;;0.30;0.30;;;;;;;;;;7371208;19;20129;-64
2023/01/05 02:03:28;;;;;;;0.47;0.47;;;;;;;;;;7376528;19;20152;-64
2023/01/05 02:05:54;;;;;;;0.30;0.30;;;;;;;;;;7376068;19;20127;-66
2023/01/05 02:08:30;;;;;;;0.30;0.30;;;;;;;;;;7375761;19;20398;-65
2023/01/05 02:11:35;;;;;;;0.30;0.30;;;;;;;;;;7367137;19;20128;-64
2023/01/05 02:14:07;;;;;;;0.20;0.20;;;;;;;;;;7374579;19;20145;-64
2023/01/05 02:16:38;;;;;;;0.20;0.20;;;;;;;;;;7373173;19;20476;-64
2023/01/05 02:19:22;;;;;;;0.50;0.50;;;;;;;;;;7395801;19;20125;-65
2023/01/05 02:21:47;;;;;;;0.20;0.20;;;;;;;;;;7394044;19;20113;-65
2023/01/05 02:24:42;;;;;;;0.20;0.20;;;;;;;;;;7392683;19;20532;-64
2023/01/05 02:27:19;;;;;;;0.30;0.30;;;;;;;;;;7391393;19;20129;-65
2023/01/05 02:30:08;;;;;;;0.40;0.40;;;;;;;;;;7390538;19;20133;-64
2023/01/05 02:32:41;;;;;;;0.30;0.30;;;;;;;;;;7394264;19;20452;-64
2023/01/05 02:35:19;;;;;;;0.30;0.30;;;;;;;;;;7390701;19;20133;-64
2023/01/05 02:37:52;;;;;;;0.40;0.40;;;;;;;;;;7391484;19;20127;-64
2023/01/05 02:40:22;;;;;;;0.30;0.30;;;;;;;;;;7394481;19;20541;-64
2023/01/05 02:42:49;;;;;;;0.20;0.20;;;;;;;;;;7392344;19;20500;-64
2023/01/05 02:45:15;;;;;;;0.20;0.20;;;;;;;;;;7388876;19;20125;-64
2023/01/05 02:47:44;;;;;;;0.40;0.40;;;;;;;;;;7385242;19;20121;-65
2023/01/05 02:50:12;;;;;;;0.30;0.30;;;;;;;;;;7369324;19;20136;-64
2023/01/05 02:53:13;;;;;;;0.20;0.20;;;;;;;;;;7382904;19;20202;-64
2023/01/05 02:55:40;;;;;;;0.20;0.20;;;;;;;;;;7371876;19;20145;-64
2023/01/05 02:58:10;;;;;;;0.30;0.30;;;;;;;;;;7377643;19;20121;-64
2023/01/05 03:00:42;;;;;;;0.20;0.20;;;;;;;;;;7380286;19;20172;-64
2023/01/05 03:03:16;;;;;;;0.30;0.30;;;;;;;;;;7381805;19;20149;-64
2023/01/05 03:05:47;;;;;;;0.20;0.20;;;;;;;;;;7378477;19;20125;-66
2023/01/05 03:08:20;;;;;;;0.23;0.23;;;;;;;;;;7382290;19;20148;-65
2023/01/05 03:13:41;;;;;;;0.20;0.20;;;;;;;;;;7373299;19;20158;-64
2023/01/05 03:16:09;;;;;;;0.30;0.30;;;;;;;;;;7376885;19;20161;-66
2023/01/05 03:19:34;;;;;;;0.20;0.20;;;;;;;;;;7380593;19;20132;-66
2023/01/05 03:21:21;;;;;;;0.20;0.20;;;;;;;;;;7381762;19;20541;-65
2023/01/05 03:35:31;;;;;;;0.30;0.30;;;;;;;;;;7380587;19;20132;-65
2023/01/05 03:38:02;;;;;;;0.30;0.30;;;;;;;;;;7373700;19;20579;-66
2023/01/05 03:40:29;;;;;;;0.30;0.30;;;;;;;;;;7384471;19;20476;-66
2023/01/05 03:42:55;;;;;;;0.30;0.30;;;;;;;;;;7375639;19;21000;-64
2023/01/05 03:45:22;;;;;;;0.30;0.30;;;;;;;;;;7367450;19;20117;-64
2023/01/05 03:47:48;;;;;;;0.30;0.30;;;;;;;;;;7379673;19;20141;-65
2023/01/05 03:50:13;;;;;;;0.30;0.30;;;;;;;;;;7376111;19;20137;-65
2023/01/05 03:52:39;;;;;;;0.30;0.30;;;;;;;;;;7378829;19;20235;-65
2023/01/05 03:55:04;;;;;;;0.20;0.20;;;;;;;;;;7374873;19;20121;-65
2023/01/05 03:57:29;;;;;;;0.30;0.30;;;;;;;;;;7378664;19;20558;-66
2023/01/05 03:59:55;;;;;;;0.20;0.20;;;;;;;;;;7373450;19;20749;-64
2023/01/05 04:02:20;;;;;;;0.30;0.30;;;;;;;;;;7381063;19;20477;-65
2023/01/05 04:04:45;;;;;;;0.40;0.40;;;;;;;;;;7385889;19;20165;-64
2023/01/05 04:07:11;;;;;;;0.20;0.20;;;;;;;;;;7389462;19;20410;-64
2023/01/05 04:09:36;;;;;;;0.20;0.20;;;;;;;;;;7391524;19;20132;-64
2023/01/05 04:12:01;;;;;;;0.20;0.20;;;;;;;;;;7390822;19;20136;-65
2023/01/05 04:14:26;;;;;;;0.20;0.20;;;;;;;;;;7390131;19;20137;-65
2023/01/05 04:16:52;;;;;;;0.30;0.30;;;;;;;;;;7375489;19;20137;-65
2023/01/05 04:19:17;;;;;;;0.30;0.30;;;;;;;;;;7372610;19;20505;-65
2023/01/05 04:21:42;;;;;;;0.20;0.20;;;;;;;;;;7383844;19;20638;-65
2023/01/05 04:24:09;;;;;;;0.30;0.30;;;;;;;;;;7385347;19;20155;-65
2023/01/05 04:26:36;;;;;;;0.20;0.20;;;;;;;;;;7386147;19;20587;-65
2023/01/05 04:29:02;;;;;;;0.20;0.20;;;;;;;;;;7384009;19;20121;-65
2023/01/05 04:31:27;;;;;;;0.30;0.30;;;;;;;;;;7389815;19;20117;-66
2023/01/05 04:33:53;;;;;;;0.40;0.40;;;;;;;;;;7386734;19;20136;-66
2023/01/05 04:36:18;;;;;;;0.30;0.30;;;;;;;;;;7386833;19;20151;-65
2023/01/05 04:38:43;;;;;;;0.33;0.33;;;;;;;;;;7385409;19;20109;-66
2023/01/05 04:41:10;;;;;;;0.30;0.30;;;;;;;;;;7384345;19;20137;-65
2023/01/05 04:43:35;;;;;;;0.30;0.30;;;;;;;;;;7385619;19;20148;-66
2023/01/05 04:46:00;;;;;;;0.30;0.30;;;;;;;;;;7383687;19;20126;-65
2023/01/05 04:48:26;;;;;;;0.30;0.30;;;;;;;;;;7390263;19;20119;-65
2023/01/05 04:50:53;;;;;;;0.50;0.50;;;;;;;;;;7382377;19;20196;-66
2023/01/05 04:53:18;;;;;;;0.20;0.20;;;;;;;;;;7385752;19;20499;-66
2023/01/05 04:55:44;;;;;;;0.27;0.27;;;;;;;;;;7383379;19;20169;-65
2023/01/05 04:58:10;;;;;;;0.47;0.47;;;;;;;;;;7381240;19;20127;-65
2023/01/05 05:00:35;;;;;;;0.30;0.30;;;;;;;;;;7384215;19;20180;-64
2023/01/05 05:03:01;;;;;;;0.30;0.30;;;;;;;;;;7383697;19;20149;-64
2023/01/05 05:05:26;;;;;;;0.23;0.23;;;;;;;;;;7389104;19;20125;-64
2023/01/05 05:07:51;;;;;;;0.23;0.23;;;;;;;;;;7382950;19;20637;-64
2023/01/05 05:10:17;;;;;;;0.20;0.20;;;;;;;;;;7385392;19;20133;-64
2023/01/05 05:12:42;;;;;;;0.20;0.20;;;;;;;;;;7379450;19;20508;-64
2023/01/05 05:15:08;;;;;;;0.20;0.20;;;;;;;;;;7389209;19;20465;-65
2023/01/05 05:17:34;;;;;;;0.30;0.30;;;;;;;;;;7383885;19;20623;-64
2023/01/05 05:19:59;;;;;;;0.30;0.30;;;;;;;;;;7384815;19;20128;-65
2023/01/05 05:22:25;;;;;;;0.30;0.30;;;;;;;;;;7382253;19;20181;-64
2023/01/05 05:24:50;;;;;;;0.30;0.30;;;;;;;;;;7387162;19;20157;-65
2023/01/05 05:27:15;;;;;;;0.23;0.23;;;;;;;;;;7388223;19;20121;-65
2023/01/05 05:29:41;;;;;;;0.27;0.27;;;;;;;;;;7387940;19;20121;-65
2023/01/05 05:32:06;;;;;;;0.30;0.30;;;;;;;;;;7387508;19;20468;-66
2023/01/05 05:34:31;;;;;;;0.30;0.30;;;;;;;;;;7383760;19;20165;-66
2023/01/05 05:36:56;;;;;;;0.37;0.37;;;;;;;;;;7386246;19;20117;-66
2023/01/05 05:39:22;;;;;;;0.30;0.30;;;;;;;;;;7387578;19;20192;-65
2023/01/05 05:41:47;;;;;;;0.30;0.30;;;;;;;;;;7389447;19;20745;-65
2023/01/05 05:44:12;;;;;;;0.30;0.30;;;;;;;;;;7386716;19;20176;-65
2023/01/05 05:46:38;;;;;;;0.30;0.30;;;;;;;;;;7388970;19;20105;-65
2023/01/05 05:49:03;;;;;;;0.20;0.20;;;;;;;;;;7385524;19;20127;-66
2023/01/05 05:51:28;;;;;;;0.30;0.30;;;;;;;;;;7389416;19;20464;-65
2023/01/05 05:53:54;;;;;;;0.30;0.30;;;;;;;;;;7393142;19;20137;-65
2023/01/05 05:56:19;;;;;;;0.30;0.30;;;;;;;;;;7388748;19;20121;-65
2023/01/05 05:58:44;;;;;;;0.20;0.20;;;;;;;;;;7391956;19;20133;-65
2023/01/05 06:01:10;;;;;;;0.20;0.20;;;;;;;;;;7388925;19;20169;-65
2023/01/05 06:03:35;;;;;;;0.30;0.30;;;;;;;;;;7389718;19;20179;-65
2023/01/05 06:06:01;;;;;;;0.20;0.20;;;;;;;;;;7393288;19;20109;-66
2023/01/05 06:08:28;;;;;;;0.30;0.30;;;;;;;;;;7395351;19;20117;-65
2023/01/05 06:10:54;;;;;;;0.30;0.30;;;;;;;;;;7394651;19;20448;-65
2023/01/05 06:13:19;;;;;;;0.20;0.20;;;;;;;;;;7390934;19;20152;-66
2023/01/05 06:15:45;;;;;;;0.20;0.20;;;;;;;;;;7393155;19;20109;-65
2023/01/05 06:18:10;;;;;;;0.30;0.30;;;;;;;;;;7393194;19;20125;-65
2023/01/05 06:20:36;;;;;;;0.27;0.27;;;;;;;;;;7392079;19;20140;-65
2023/01/05 06:23:01;;;;;;;0.30;0.30;;;;;;;;;;7393688;19;20175;-65
2023/01/05 06:25:26;;;;;;;0.20;0.20;;;;;;;;;;7391683;19;20488;-65
2023/01/05 06:27:51;;;;;;;0.20;0.20;;;;;;;;;;7390097;19;20121;-66
2023/01/05 06:30:17;;;;;;;0.20;0.20;;;;;;;;;;7394508;19;20121;-65
2023/01/05 06:32:42;;;;;;;0.30;0.30;;;;;;;;;;7395229;19;20185;-65
2023/01/05 06:35:08;;;;;;;0.20;0.20;;;;;;;;;;7390150;19;20519;-66
2023/01/05 06:37:33;;;;;;;0.20;0.20;;;;;;;;;;7394781;19;20133;-66
2023/01/05 06:39:58;;;;;;;0.23;0.23;;;;;;;;;;7391486;19;20172;-66
2023/01/05 06:42:24;;;;;;;0.20;0.20;;;;;;;;;;7392268;19;20123;-66
2023/01/05 06:44:49;;;;;;;0.30;0.30;;;;;;;;;;7392790;19;20141;-66
2023/01/05 06:47:15;;;;;;;0.20;0.20;;;;;;;;;;7387660;19;20189;-67
2023/01/05 06:49:40;;;;;;;0.30;0.30;;;;;;;;;;7394777;19;20132;-66
2023/01/05 06:52:05;;;;;;;0.40;0.40;;;;;;;;;;7391170;19;20144;-66
2023/01/05 06:54:30;;;;;;;0.30;0.30;;;;;;;;;;7392550;19;20564;-66
2023/01/05 06:56:56;;;;;;;0.23;0.23;;;;;;;;;;7390183;19;20113;-66
2023/01/05 06:59:21;;;;;;;0.30;0.30;;;;;;;;;;7395147;19;20113;-66
2023/01/05 07:01:46;;;;;;;0.30;0.30;;;;;;;;;;7388403;19;20113;-66
2023/01/05 07:04:12;;;;;;;0.20;0.20;;;;;;;;;;7388674;19;20148;-66
2023/01/05 07:06:37;;;;;;;0.30;0.30;;;;;;;;;;7391426;19;20120;-66
2023/01/05 07:09:02;;;;;;;0.30;0.30;;;;;;;;;;7391272;19;20121;-66
2023/01/05 07:11:28;;;;;;;0.30;0.30;;;;;;;;;;7392579;19;20128;-66
2023/01/05 07:13:53;;;;;;;0.20;0.20;;;;;;;;;;7390461;19;20141;-66
2023/01/05 07:16:18;;;;;;;0.30;0.30;;;;;;;;;;7390478;19;20117;-66
2023/01/05 07:18:44;;;;;;;0.30;0.30;;;;;;;;;;7386054;19;20128;-66
2023/01/05 07:21:10;;;;;;;0.20;0.20;;;;;;;;;;7392245;19;20136;-66
2023/01/05 07:23:38;;;;;;;0.20;0.20;;;;;;;;;;7390708;19;20145;-66
2023/01/05 07:26:07;;;;;;;0.30;0.30;;;;;;;;;;7389666;19;20133;-66
2023/01/05 07:28:34;;;;;;;0.30;0.30;;;;;;;;;;7391215;19;20134;-66
2023/01/05 07:31:00;;;;;;;0.20;0.20;;;;;;;;;;7391134;19;20133;-66
2023/01/05 07:33:25;;;;;;;0.20;0.20;;;;;;;;;;7390045;19;20721;-66
2023/01/05 07:35:50;;;;;;;0.30;0.30;;;;;;;;;;7383791;19;20213;-66
2023/01/05 07:38:16;;;;;;;0.20;0.20;;;;;;;;;;7391923;19;20113;-66
2023/01/05 07:40:41;;;;;;;0.20;0.20;;;;;;;;;;7389715;19;20130;-66
2023/01/05 07:43:06;;;;;;;0.30;0.30;;;;;;;;;;7393595;19;20619;-66
2023/01/05 07:45:32;;;;;;;0.20;0.20;;;;;;;;;;7391313;19;20591;-65
2023/01/05 07:47:58;;;;;;;0.20;0.20;;;;;;;;;;7390483;19;20140;-64
2023/01/05 07:50:24;;;;;;;0.37;0.37;;;;;;;;;;7389974;19;20223;-66
2023/01/05 07:52:49;;;;;;;0.20;0.20;;;;;;;;;;7390722;19;20148;-66
2023/01/05 07:55:14;;;;;;;0.30;0.30;;;;;;;;;;7389670;19;20587;-66
2023/01/05 07:57:40;;;;;;;0.20;0.20;;;;;;;;;;7389175;19;20627;-66
2023/01/05 08:00:06;;;;;;;0.30;0.30;;;;;;;;;;7381660;19;20125;-66
2023/01/05 08:02:32;;;;;;;0.20;0.20;;;;;;;;;;7384033;19;20144;-66
2023/01/05 08:04:57;;;;;;;0.53;0.53;;;;;;;;;;7372048;19;20149;-66
2023/01/05 08:07:22;;;;;;;0.30;0.30;;;;;;;;;;7386150;19;20133;-66
2023/01/05 08:12:31;;;;;;;0.30;0.30;;;;;;;;;;7390860;19;20128;-66
2023/01/05 08:14:57;;;;;;;0.30;0.30;;;;;;;;;;7385778;19;20121;-66
2023/01/05 08:17:22;;;;;;;0.20;0.20;;;;;;;;;;7379581;19;20188;-66
2023/01/05 08:19:47;;;;;;;0.30;0.30;;;;;;;;;;7377101;19;20121;-66
2023/01/05 08:22:13;;;;;;;0.20;0.20;;;;;;;;;;7386485;19;20147;-66
2023/01/05 08:24:38;;;;;;;0.30;0.30;;;;;;;;;;7380662;19;20133;-66
2023/01/05 08:27:04;;;;;;;0.30;0.30;;;;;;;;;;7383327;19;20162;-66
2023/01/05 08:29:29;;;;;;;0.40;0.40;;;;;;;;;;7378655;19;20638;-66
2023/01/05 08:31:54;;;;;;;0.30;0.30;;;;;;;;;;7379787;19;20145;-66
2023/01/05 08:34:19;;;;;;;0.30;0.30;;;;;;;;;;7383707;19;20157;-66
2023/01/05 08:36:45;;;;;;;0.30;0.30;;;;;;;;;;7385345;19;20121;-66
2023/01/05 08:39:11;;;;;;;0.40;0.40;;;;;;;;;;7379103;19;20767;-66
2023/01/05 08:41:37;;;;;;;0.20;0.20;;;;;;;;;;7387847;19;20199;-66
2023/01/05 08:44:06;;;;;;;0.20;0.20;;;;;;;;;;7383954;19;20491;-66
2023/01/05 08:46:33;;;;;;;0.20;0.20;;;;;;;;;;7369021;19;20137;-66
2023/01/05 08:49:00;;;;;;;0.30;0.30;;;;;;;;;;7370764;19;20157;-66
2023/01/05 08:51:26;;;;;;;0.40;0.40;;;;;;;;;;7378933;19;20154;-66
2023/01/05 08:53:52;;;;;;;0.87;0.40;;;;;;;;;;7357085;19;20144;-67
2023/01/05 08:56:17;;;;;;;0.30;0.30;;;;;;;;;;7378265;19;20599;-66
2023/01/05 08:58:43;;;;;;;0.40;0.40;;;;;;;;;;7383554;19;20133;-66
2023/01/05 09:01:10;;;;;;;0.30;0.30;;;;;;;;;;7381669;19;20121;-66
2023/01/05 09:03:36;;;;;;;0.30;0.30;;;;;;;;;;7381044;19;20137;-66
2023/01/05 09:06:03;;;;;;;0.30;0.30;;;;;;;;;;7385381;19;20180;-66
2023/01/05 09:08:29;;;;;;;0.27;0.27;;;;;;;;;;7386781;19;20128;-66
2023/01/05 09:10:55;;;;;;;0.30;0.30;;;;;;;;;;7384335;19;20579;-66
2023/01/05 09:13:20;;;;;;;0.20;0.20;;;;;;;;;;7380921;19;20148;-66
2023/01/05 09:15:45;;;;;;;0.47;0.47;;;;;;;;;;7375400;19;20594;-66
2023/01/05 09:18:10;;;;;;;0.20;0.20;;;;;;;;;;7377607;19;20213;-66
2023/01/05 09:20:36;;;;;;;0.30;0.30;;;;;;;;;;7381660;19;20144;-66
2023/01/05 09:23:02;;;;;;;0.20;0.20;;;;;;;;;;7379976;19;20133;-66
2023/01/05 09:25:27;;;;;;;0.30;0.30;;;;;;;;;;7376317;19;20474;-66
2023/01/05 09:27:53;;;;;;;0.30;0.30;;;;;;;;;;7368438;19;20132;-66
2023/01/05 09:30:18;;;;;;;0.20;0.20;;;;;;;;;;7379286;19;21339;-66
2023/01/05 09:32:43;;;;;;;0.23;0.23;;;;;;;;;;7381063;19;20113;-66
2023/01/05 09:35:09;;;;;;;0.30;0.30;;;;;;;;;;7365366;19;20120;-66
2023/01/05 09:37:34;;;;;;;0.20;0.20;;;;;;;;;;7386333;19;20672;-66
2023/01/05 09:39:59;;;;;;;0.23;0.23;;;;;;;;;;7381959;19;20109;-66
2023/01/05 09:42:26;;;;;;;0.30;0.30;;;;;;;;;;7377330;19;20140;-66
2023/01/05 09:44:55;;;;;;;0.20;0.20;;;;;;;;;;7387378;19;20160;-66
2023/01/05 09:47:36;;;;;;;0.37;0.37;;;;;;;;;;7362171;19;20117;-66
2023/01/05 09:50:05;;;;;;;0.30;0.30;;;;;;;;;;7378910;19;20125;-66
2023/01/05 09:52:30;;;;;;;0.30;0.30;;;;;;;;;;7384961;19;20634;-66
2023/01/05 09:54:56;;;;;;;0.30;0.30;;;;;;;;;;7377142;19;20121;-66
2023/01/05 09:57:24;;;;;;;0.30;0.30;;;;;;;;;;7378841;19;20121;-65
2023/01/05 09:59:52;;;;;;;0.20;0.20;;;;;;;;;;7376487;19;20591;-65
2023/01/05 10:02:35;;;;;;;0.30;0.30;;;;;;;;;;7337659;19;20496;-65
2023/01/05 10:05:01;;;;;;;0.37;0.37;;;;;;;;;;7345984;19;20133;-65
2023/01/05 10:07:45;;;;;;;0.30;0.30;;;;;;;;;;7345175;19;20129;-65
2023/01/05 10:10:24;;;;;;;0.30;0.30;;;;;;;;;;7347627;19;20133;-65
2023/01/05 10:13:04;;;;;;;0.20;0.20;;;;;;;;;;7351382;19;20153;-65
2023/01/05 10:15:45;;;;;;;0.30;0.30;;;;;;;;;;7334632;19;20131;-65
2023/01/05 10:18:23;;;;;;;0.20;0.20;;;;;;;;;;7345443;19;20124;-65
2023/01/05 10:20:54;;;;;;;0.30;0.30;;;;;;;;;;7346320;19;20125;-65
2023/01/05 10:23:35;;;;;;;0.63;0.63;;;;;;;;;;7328620;19;20194;-65
2023/01/05 10:26:20;;;;;;;0.30;0.30;;;;;;;;;;7327665;19;20242;-65
2023/01/05 10:29:15;;;;;;;0.30;0.30;;;;;;;;;;7333997;19;20201;-64
2023/01/05 10:32:02;;;;;;;0.30;0.30;;;;;;;;;;7344174;19;20188;-64
2023/01/05 10:34:50;;;;;;;0.20;0.20;;;;;;;;;;7345556;19;20650;-64
2023/01/05 10:37:47;;;;;;;0.30;0.30;;;;;;;;;;7344341;19;20125;-63
2023/01/05 10:40:31;;;;;;;0.30;0.30;;;;;;;;;;7339624;19;20526;-65
2023/01/05 10:43:06;;;;;;;0.20;0.20;;;;;;;;;;7358675;19;23783;-64
2023/01/05 10:45:31;;;;;;;0.30;0.30;;;;;;;;;;7346857;19;20671;-64
2023/01/05 10:47:58;;;;;;;0.30;0.30;;;;;;;;;;7370478;19;20652;-64
2023/01/05 10:50:30;;;;;;;0.30;0.30;;;;;;;;;;7364023;19;20125;-65
2023/01/05 10:52:57;;;;;;;0.30;0.30;;;;;;;;;;7357943;19;20172;-66
2023/01/05 10:55:22;;;;;;;0.30;0.30;;;;;;;;;;7345033;19;20196;-65
2023/01/05 10:57:48;;;;;;;0.30;0.30;;;;;;;;;;7376647;19;20124;-64
2023/01/05 11:00:16;;;;;;;0.30;0.30;;;;;;;;;;7379110;19;20679;-65
2023/01/05 11:02:46;;;;;;;0.30;0.30;;;;;;;;;;7382445;19;20121;-64
2023/01/05 22:56:57;;;;;;;0.30;0.30;;;;;;;;;;7390730;19;20505;-62
2023/01/05 22:59:22;;;;;;;0.40;0.40;;;;;;;;;;7383413;19;20522;-61
2023/01/05 23:01:48;;;;;;;0.50;0.50;;;;;;;;;;7385042;19;20113;-61
2023/01/05 23:04:14;;;;;;;0.30;0.30;;;;;;;;;;7381477;19;20612;-61
2023/01/05 23:06:40;;;;;;;0.50;0.50;;;;;;;;;;7382047;19;20119;-61
2023/01/05 23:09:07;;;;;;;0.73;0.73;;;;;;;;;;7387692;19;20133;-61
2023/01/05 23:11:35;;;;;;;0.60;0.60;;;;;;;;;;7388842;19;20524;-61
2023/01/05 23:14:02;;;;;;;0.70;0.70;;;;;;;;;;7381960;19;20569;-62
2023/01/05 23:16:28;;;;;;;1.00;0.93;;;;;;;;;;7377732;19;20120;-61
2023/01/05 23:18:54;;;;;;;2.60;1.20;;;;;;;;;;7387570;19;20208;-61
2023/01/05 23:21:21;;;;;;;0.60;0.60;;;;;;;;;;7384744;19;20124;-61
2023/01/05 23:23:47;;;;;;;0.80;0.80;;;;;;;;;;7382208;19;20512;-61
2023/01/05 23:26:14;;;;;;;0.40;0.40;;;;;;;;;;7383745;19;20586;-61
2023/01/05 23:28:40;;;;;;;0.70;0.70;;;;;;;;;;7384944;19;20129;-61
2023/01/05 23:31:05;;;;;;;0.53;0.53;;;;;;;;;;7386297;19;20188;-61
2023/01/05 23:33:34;;;;;;;0.93;0.80;;;;;;;;;;7386305;19;20145;-61
2023/01/05 23:36:00;;;;;;;0.40;0.40;;;;;;;;;;7372663;19;20129;-62
2023/01/05 23:38:26;;;;;;;0.43;0.43;;;;;;;;;;7375569;19;20149;-62
2023/01/05 23:40:54;;;;;;;0.37;0.37;;;;;;;;;;7383860;19;20126;-63
2023/01/05 23:43:25;;;;;;;0.73;0.53;;;;;;;;;;7371505;19;20254;-62
2023/01/05 23:46:01;;;;;;;0.50;0.50;;;;;;;;;;7339573;19;20121;-62
2023/01/05 23:48:26;;;;;;;0.60;0.60;;;;;;;;;;7355209;19;20497;-62
2023/01/05 23:50:53;;;;;;;0.40;0.40;;;;;;;;;;7356389;19;20117;-62
2023/01/05 23:53:18;;;;;;;0.30;0.30;;;;;;;;;;7336468;19;20156;-62
2023/01/05 23:55:43;;;;;;;1.00;0.60;;;;;;;;;;7339774;19;20484;-62
2023/01/05 23:58:09;;;;;;;0.30;0.30;;;;;;;;;;7354558;19;20129;-62
